Strona główna
METAR-TAF:

METAR-TAF

Lotnisko :

Chadron, Nebraska, Stany Zjednoczone

Szerokość geograficzna: 42-50-15N, Długość geograficzna: 103-05-43W, wysokość: 1005 m

Aktualna obserwacja pogody

Raport powstał 22 minut temu, godzina 08:53 UTC
Wiatr 5 kt od zachód
Temperatura 13°C
Wilgotność 88%
Ciśnienie 1004 hPa
Widzialność: 16.1 km
Przerywane chmury na wysokości 11000 ft

METAR: KCDR 070853Z AUTO 26005KT 10SM BKN110 13/11 A2964 RMK AO2 SLP011 T01280111 56007 $

czas: 03:15 (09:15 UTC)

Prognoza

Raport powstał 3 godziny i 55 minut temu, godzina 05:20 UTC
Prognoza ważna od 07 godzina 06 UTC do 08 godzina 06 UTC
Wiatr 8 kt od zachód
Widzialność: 10 km
Mało chmury na wysokości 15000 ft
Od 07 godzina 0800 UTC
Wiatr 6 kt od południowo-południowy zachód
Widzialność: 10 km
bezchmurnie
Od 07 godzina 1200 UTC
Wiatr 8 kt od zachodnio-południowy zachód
Widzialność: 10 km
bezchmurnie

TAF: KCDR 070520Z 0706/0806 28008KT P6SM FEW150 FM070800 21006KT P6SM SKC FM071200 24008KT P6SM SKC

Obserwacja i prognoza pogody dla ponad 4000 lotnisk (raport METAR i TAF).

Dostępne stacje oznaczono żółtymi i czerwonymi punktami na mapie.

Najedź kursorem aby zobaczyć nazwę stacji.

Kliknij aby zobaczyć obserwacje i prognozy pogody.

Aby zmienić mapę: kliknij na zielony przycisk z czarnym krzyżykiem, aby powiększyć; na zielony przycisk z myślnikiem, aby pomniejszyć; na zielone strzałki, aby przejść do map sąsiednich.


METAR-TAF: